Terminal Aerodrome Forecast
Issued by NWS Charleston, WV

Current Version | Previous Version | Text Only | Print | Product List | Glossary Off
Versions: 1 2 3 4 5 6 7 8 9 10 11 12 13 14 15 16 17 18 19 20 21 22 23 24 25

000
FTUS41 KRLX 200900 AAA
TAFEKN
TAF AMD
KEKN 200903Z 2009/2106 24007KT P6SM OVC045
     FM201200 27005KT 4SM -SN OVC030
     FM201900 26008KT P6SM BKN035
     FM210200 27007KT 5SM -SN BKN030
     FM210400 28007KT 2SM -SN BKN025=

USA.gov is the U.S. government's official web portal to all federal, state and local government web resources and services.